sensor_id;sensor_type;location;lat;lon;timestamp;P1;durP1;ratioP1;P2;durP2;ratioP2
68942;SDS011;60852;52.190;4.422;2024-03-02T00:00:06;0.87;;;0.86;;
68942;SDS011;60852;52.190;4.422;2024-03-02T00:02:41;1.03;;;1.00;;
68942;SDS011;60852;52.190;4.422;2024-03-02T00:05:11;0.98;;;0.96;;
68942;SDS011;60852;52.190;4.422;2024-03-02T00:07:42;0.76;;;0.75;;
68942;SDS011;60852;52.190;4.422;2024-03-02T00:10:09;0.81;;;0.81;;
68942;SDS011;60852;52.190;4.422;2024-03-02T00:12:37;0.82;;;0.82;;
68942;SDS011;60852;52.190;4.422;2024-03-02T00:15:06;0.87;;;0.86;;
68942;SDS011;60852;52.190;4.422;2024-03-02T00:18:12;0.82;;;0.82;;
68942;SDS011;60852;52.190;4.422;2024-03-02T00:20:52;0.89;;;0.89;;
68942;SDS011;60852;52.190;4.422;2024-03-02T00:23:20;0.99;;;0.99;;
68942;SDS011;60852;52.190;4.422;2024-03-02T00:25:48;0.99;;;0.99;;
68942;SDS011;60852;52.190;4.422;2024-03-02T00:28:29;0.98;;;0.98;;
68942;SDS011;60852;52.190;4.422;2024-03-02T00:33:28;0.89;;;0.89;;
68942;SDS011;60852;52.190;4.422;2024-03-02T00:36:04;0.84;;;0.84;;
68942;SDS011;60852;52.190;4.422;2024-03-02T00:38:30;0.88;;;0.88;;
68942;SDS011;60852;52.190;4.422;2024-03-02T00:40:58;0.82;;;0.82;;
68942;SDS011;60852;52.190;4.422;2024-03-02T00:45:54;1.14;;;1.14;;
68942;SDS011;60852;52.190;4.422;2024-03-02T00:48:19;1.38;;;1.38;;
68942;SDS011;60852;52.190;4.422;2024-03-02T00:50:45;1.24;;;1.24;;
68942;SDS011;60852;52.190;4.422;2024-03-02T00:53:11;1.11;;;1.11;;
68942;SDS011;60852;52.190;4.422;2024-03-02T00:55:38;1.17;;;1.17;;
68942;SDS011;60852;52.190;4.422;2024-03-02T00:58:09;1.11;;;1.11;;
68942;SDS011;60852;52.190;4.422;2024-03-02T01:00:34;1.05;;;1.05;;
68942;SDS011;60852;52.190;4.422;2024-03-02T01:03:00;0.92;;;0.92;;
68942;SDS011;60852;52.190;4.422;2024-03-02T01:05:25;0.84;;;0.84;;
68942;SDS011;60852;52.190;4.422;2024-03-02T01:07:51;0.78;;;0.78;;
68942;SDS011;60852;52.190;4.422;2024-03-02T01:10:16;0.91;;;0.91;;
68942;SDS011;60852;52.190;4.422;2024-03-02T01:12:42;1.02;;;1.02;;
68942;SDS011;60852;52.190;4.422;2024-03-02T01:15:07;1.13;;;1.13;;
68942;SDS011;60852;52.190;4.422;2024-03-02T01:17:33;0.89;;;0.89;;
68942;SDS011;60852;52.190;4.422;2024-03-02T01:19:58;1.00;;;1.00;;
68942;SDS011;60852;52.190;4.422;2024-03-02T01:22:24;0.87;;;0.87;;
68942;SDS011;60852;52.190;4.422;2024-03-02T01:24:50;0.90;;;0.89;;
68942;SDS011;60852;52.190;4.422;2024-03-02T01:27:16;1.00;;;0.99;;
68942;SDS011;60852;52.190;4.422;2024-03-02T01:29:42;1.04;;;1.04;;
68942;SDS011;60852;52.190;4.422;2024-03-02T01:32:07;1.21;;;1.21;;
68942;SDS011;60852;52.190;4.422;2024-03-02T01:34:33;1.23;;;1.22;;
68942;SDS011;60852;52.190;4.422;2024-03-02T01:36:58;1.41;;;1.40;;
68942;SDS011;60852;52.190;4.422;2024-03-02T01:39:23;1.23;;;1.23;;
68942;SDS011;60852;52.190;4.422;2024-03-02T01:41:49;1.45;;;1.45;;
68942;SDS011;60852;52.190;4.422;2024-03-02T01:44:14;1.61;;;1.61;;
68942;SDS011;60852;52.190;4.422;2024-03-02T01:46:40;1.62;;;1.62;;
68942;SDS011;60852;52.190;4.422;2024-03-02T01:49:05;1.44;;;1.44;;
68942;SDS011;60852;52.190;4.422;2024-03-02T01:51:31;1.31;;;1.31;;
68942;SDS011;60852;52.190;4.422;2024-03-02T01:53:57;1.12;;;1.12;;
68942;SDS011;60852;52.190;4.422;2024-03-02T01:56:22;1.15;;;1.15;;
68942;SDS011;60852;52.190;4.422;2024-03-02T01:58:49;1.13;;;1.13;;
68942;SDS011;60852;52.190;4.422;2024-03-02T02:01:15;1.21;;;1.21;;
68942;SDS011;60852;52.190;4.422;2024-03-02T02:03:41;0.97;;;0.96;;
68942;SDS011;60852;52.190;4.422;2024-03-02T02:06:08;0.90;;;0.89;;
68942;SDS011;60852;52.190;4.422;2024-03-02T02:08:34;0.80;;;0.79;;
68942;SDS011;60852;52.190;4.422;2024-03-02T02:10:59;0.84;;;0.83;;
68942;SDS011;60852;52.190;4.422;2024-03-02T02:13:24;0.85;;;0.84;;
68942;SDS011;60852;52.190;4.422;2024-03-02T02:15:50;0.80;;;0.79;;
68942;SDS011;60852;52.190;4.422;2024-03-02T02:18:15;0.74;;;0.73;;
68942;SDS011;60852;52.190;4.422;2024-03-02T02:20:41;0.90;;;0.88;;
68942;SDS011;60852;52.190;4.422;2024-03-02T02:23:06;0.85;;;0.84;;
68942;SDS011;60852;52.190;4.422;2024-03-02T02:25:34;0.90;;;0.89;;
68942;SDS011;60852;52.190;4.422;2024-03-02T02:28:00;1.00;;;0.99;;
68942;SDS011;60852;52.190;4.422;2024-03-02T02:30:30;1.15;;;1.13;;
68942;SDS011;60852;52.190;4.422;2024-03-02T02:32:57;1.29;;;1.28;;
68942;SDS011;60852;52.190;4.422;2024-03-02T02:35:24;1.87;;;1.86;;
68942;SDS011;60852;52.190;4.422;2024-03-02T02:37:50;2.00;;;1.98;;
68942;SDS011;60852;52.190;4.422;2024-03-02T02:40:17;2.50;;;2.48;;
68942;SDS011;60852;52.190;4.422;2024-03-02T02:42:46;3.20;;;3.18;;
68942;SDS011;60852;52.190;4.422;2024-03-02T02:45:12;3.84;;;3.84;;
68942;SDS011;60852;52.190;4.422;2024-03-02T02:47:39;4.01;;;4.01;;
68942;SDS011;60852;52.190;4.422;2024-03-02T02:50:09;4.07;;;4.07;;
68942;SDS011;60852;52.190;4.422;2024-03-02T02:52:36;4.44;;;4.44;;
68942;SDS011;60852;52.190;4.422;2024-03-02T02:55:05;4.21;;;4.21;;
68942;SDS011;60852;52.190;4.422;2024-03-02T02:57:39;4.11;;;4.11;;
68942;SDS011;60852;52.190;4.422;2024-03-02T03:00:15;3.75;;;3.75;;
68942;SDS011;60852;52.190;4.422;2024-03-02T03:02:44;3.80;;;3.80;;
68942;SDS011;60852;52.190;4.422;2024-03-02T03:05:12;3.98;;;3.98;;
68942;SDS011;60852;52.190;4.422;2024-03-02T03:07:39;3.70;;;3.70;;
68942;SDS011;60852;52.190;4.422;2024-03-02T03:10:06;3.56;;;3.56;;
68942;SDS011;60852;52.190;4.422;2024-03-02T03:12:32;3.84;;;3.84;;
68942;SDS011;60852;52.190;4.422;2024-03-02T03:14:59;3.53;;;3.53;;
68942;SDS011;60852;52.190;4.422;2024-03-02T03:17:25;3.51;;;3.51;;
68942;SDS011;60852;52.190;4.422;2024-03-02T03:19:51;3.46;;;3.46;;
68942;SDS011;60852;52.190;4.422;2024-03-02T03:22:17;3.29;;;3.29;;
68942;SDS011;60852;52.190;4.422;2024-03-02T03:24:42;3.13;;;3.13;;
68942;SDS011;60852;52.190;4.422;2024-03-02T03:27:08;3.17;;;3.17;;
68942;SDS011;60852;52.190;4.422;2024-03-02T03:29:35;3.01;;;3.01;;
68942;SDS011;60852;52.190;4.422;2024-03-02T03:32:01;3.05;;;3.05;;
68942;SDS011;60852;52.190;4.422;2024-03-02T03:34:27;3.15;;;3.15;;
68942;SDS011;60852;52.190;4.422;2024-03-02T03:36:54;3.21;;;3.21;;
68942;SDS011;60852;52.190;4.422;2024-03-02T03:39:19;3.16;;;3.16;;
68942;SDS011;60852;52.190;4.422;2024-03-02T03:41:45;2.87;;;2.87;;
68942;SDS011;60852;52.190;4.422;2024-03-02T03:44:11;3.02;;;3.02;;
68942;SDS011;60852;52.190;4.422;2024-03-02T03:46:36;3.09;;;3.09;;
68942;SDS011;60852;52.190;4.422;2024-03-02T03:49:01;3.16;;;3.16;;
68942;SDS011;60852;52.190;4.422;2024-03-02T03:51:29;3.30;;;3.30;;
68942;SDS011;60852;52.190;4.422;2024-03-02T03:53:55;3.06;;;3.06;;
68942;SDS011;60852;52.190;4.422;2024-03-02T03:56:21;3.35;;;3.35;;
68942;SDS011;60852;52.190;4.422;2024-03-02T03:58:46;3.33;;;3.33;;
68942;SDS011;60852;52.190;4.422;2024-03-02T04:01:11;3.06;;;3.06;;
68942;SDS011;60852;52.190;4.422;2024-03-02T04:03:37;3.17;;;3.17;;
68942;SDS011;60852;52.190;4.422;2024-03-02T04:06:03;3.26;;;3.26;;
68942;SDS011;60852;52.190;4.422;2024-03-02T04:08:29;3.39;;;3.39;;
68942;SDS011;60852;52.190;4.422;2024-03-02T04:10:54;3.09;;;3.09;;
68942;SDS011;60852;52.190;4.422;2024-03-02T04:13:20;2.91;;;2.91;;
68942;SDS011;60852;52.190;4.422;2024-03-02T04:15:45;3.17;;;3.17;;
68942;SDS011;60852;52.190;4.422;2024-03-02T04:18:10;3.20;;;3.20;;
68942;SDS011;60852;52.190;4.422;2024-03-02T04:20:36;3.00;;;3.00;;
68942;SDS011;60852;52.190;4.422;2024-03-02T04:23:02;2.76;;;2.76;;
68942;SDS011;60852;52.190;4.422;2024-03-02T04:25:27;2.63;;;2.63;;
68942;SDS011;60852;52.190;4.422;2024-03-02T04:27:53;2.59;;;2.59;;
68942;SDS011;60852;52.190;4.422;2024-03-02T04:30:18;2.58;;;2.58;;
68942;SDS011;60852;52.190;4.422;2024-03-02T04:32:44;2.72;;;2.72;;
68942;SDS011;60852;52.190;4.422;2024-03-02T04:35:12;2.69;;;2.69;;
68942;SDS011;60852;52.190;4.422;2024-03-02T04:37:38;2.80;;;2.80;;
68942;SDS011;60852;52.190;4.422;2024-03-02T04:40:04;2.98;;;2.98;;
68942;SDS011;60852;52.190;4.422;2024-03-02T04:42:33;3.04;;;3.04;;
68942;SDS011;60852;52.190;4.422;2024-03-02T04:44:59;2.77;;;2.77;;
68942;SDS011;60852;52.190;4.422;2024-03-02T04:47:24;2.90;;;2.90;;
68942;SDS011;60852;52.190;4.422;2024-03-02T04:49:50;2.83;;;2.83;;
68942;SDS011;60852;52.190;4.422;2024-03-02T04:52:15;2.66;;;2.66;;
68942;SDS011;60852;52.190;4.422;2024-03-02T04:54:42;2.44;;;2.44;;
68942;SDS011;60852;52.190;4.422;2024-03-02T04:57:33;2.41;;;2.41;;
68942;SDS011;60852;52.190;4.422;2024-03-02T04:59:59;2.35;;;2.35;;
68942;SDS011;60852;52.190;4.422;2024-03-02T05:02:25;2.21;;;2.21;;
68942;SDS011;60852;52.190;4.422;2024-03-02T05:04:50;2.28;;;2.28;;
68942;SDS011;60852;52.190;4.422;2024-03-02T05:07:16;2.16;;;2.16;;
68942;SDS011;60852;52.190;4.422;2024-03-02T05:09:41;2.39;;;2.39;;
68942;SDS011;60852;52.190;4.422;2024-03-02T05:12:07;2.32;;;2.32;;
68942;SDS011;60852;52.190;4.422;2024-03-02T05:14:51;2.47;;;2.47;;
68942;SDS011;60852;52.190;4.422;2024-03-02T05:17:17;2.00;;;2.00;;
68942;SDS011;60852;52.190;4.422;2024-03-02T05:19:42;2.24;;;2.24;;
68942;SDS011;60852;52.190;4.422;2024-03-02T05:22:08;2.44;;;2.44;;
68942;SDS011;60852;52.190;4.422;2024-03-02T05:24:33;2.40;;;2.40;;
68942;SDS011;60852;52.190;4.422;2024-03-02T05:26:59;2.20;;;2.20;;
68942;SDS011;60852;52.190;4.422;2024-03-02T05:29:24;2.44;;;2.42;;
68942;SDS011;60852;52.190;4.422;2024-03-02T05:31:50;2.20;;;2.20;;
68942;SDS011;60852;52.190;4.422;2024-03-02T05:34:15;1.93;;;1.93;;
68942;SDS011;60852;52.190;4.422;2024-03-02T05:36:41;2.11;;;2.11;;
68942;SDS011;60852;52.190;4.422;2024-03-02T05:39:06;1.85;;;1.85;;
68942;SDS011;60852;52.190;4.422;2024-03-02T05:41:34;2.09;;;2.09;;
68942;SDS011;60852;52.190;4.422;2024-03-02T05:44:00;2.08;;;2.08;;
68942;SDS011;60852;52.190;4.422;2024-03-02T05:46:26;2.08;;;2.08;;
68942;SDS011;60852;52.190;4.422;2024-03-02T05:48:53;2.38;;;2.38;;
68942;SDS011;60852;52.190;4.422;2024-03-02T05:51:18;2.50;;;2.50;;
68942;SDS011;60852;52.190;4.422;2024-03-02T05:53:44;2.20;;;2.20;;
68942;SDS011;60852;52.190;4.422;2024-03-02T05:56:09;1.97;;;1.96;;
68942;SDS011;60852;52.190;4.422;2024-03-02T05:58:35;1.99;;;1.98;;
68942;SDS011;60852;52.190;4.422;2024-03-02T06:01:19;2.23;;;2.23;;
68942;SDS011;60852;52.190;4.422;2024-03-02T06:03:44;2.27;;;2.27;;
68942;SDS011;60852;52.190;4.422;2024-03-02T06:06:10;2.25;;;2.25;;
68942;SDS011;60852;52.190;4.422;2024-03-02T06:08:35;2.17;;;2.17;;
68942;SDS011;60852;52.190;4.422;2024-03-02T06:11:01;1.91;;;1.91;;
68942;SDS011;60852;52.190;4.422;2024-03-02T06:13:27;2.12;;;2.12;;
68942;SDS011;60852;52.190;4.422;2024-03-02T06:15:52;2.27;;;2.27;;
68942;SDS011;60852;52.190;4.422;2024-03-02T06:18:18;2.44;;;2.44;;
68942;SDS011;60852;52.190;4.422;2024-03-02T06:20:43;2.12;;;2.12;;
68942;SDS011;60852;52.190;4.422;2024-03-02T06:23:09;1.78;;;1.78;;
68942;SDS011;60852;52.190;4.422;2024-03-02T06:25:34;1.80;;;1.80;;
68942;SDS011;60852;52.190;4.422;2024-03-02T06:28:00;1.65;;;1.65;;
68942;SDS011;60852;52.190;4.422;2024-03-02T06:30:25;1.59;;;1.58;;
68942;SDS011;60852;52.190;4.422;2024-03-02T06:32:50;1.52;;;1.51;;
68942;SDS011;60852;52.190;4.422;2024-03-02T06:35:16;1.51;;;1.51;;
68942;SDS011;60852;52.190;4.422;2024-03-02T06:37:41;1.28;;;1.27;;
68942;SDS011;60852;52.190;4.422;2024-03-02T06:40:07;1.62;;;1.60;;
68942;SDS011;60852;52.190;4.422;2024-03-02T06:42:33;1.66;;;1.65;;
68942;SDS011;60852;52.190;4.422;2024-03-02T06:44:59;1.60;;;1.60;;
68942;SDS011;60852;52.190;4.422;2024-03-02T06:47:25;1.70;;;1.70;;
68942;SDS011;60852;52.190;4.422;2024-03-02T06:49:50;1.59;;;1.59;;
68942;SDS011;60852;52.190;4.422;2024-03-02T06:52:16;1.63;;;1.62;;
68942;SDS011;60852;52.190;4.422;2024-03-02T06:54:42;1.91;;;1.90;;
68942;SDS011;60852;52.190;4.422;2024-03-02T06:57:07;1.86;;;1.86;;
68942;SDS011;60852;52.190;4.422;2024-03-02T06:59:33;1.60;;;1.60;;
68942;SDS011;60852;52.190;4.422;2024-03-02T07:01:58;1.70;;;1.64;;
68942;SDS011;60852;52.190;4.422;2024-03-02T07:04:24;1.91;;;1.83;;
68942;SDS011;60852;52.190;4.422;2024-03-02T07:06:50;2.25;;;2.19;;
68942;SDS011;60852;52.190;4.422;2024-03-02T07:09:16;1.95;;;1.92;;
68942;SDS011;60852;52.190;4.422;2024-03-02T07:11:42;2.03;;;2.00;;
68942;SDS011;60852;52.190;4.422;2024-03-02T07:14:07;1.57;;;1.56;;
68942;SDS011;60852;52.190;4.422;2024-03-02T07:16:33;1.59;;;1.57;;
68942;SDS011;60852;52.190;4.422;2024-03-02T07:18:59;1.95;;;1.90;;
68942;SDS011;60852;52.190;4.422;2024-03-02T07:21:27;1.90;;;1.84;;
68942;SDS011;60852;52.190;4.422;2024-03-02T07:23:53;2.05;;;1.98;;
68942;SDS011;60852;52.190;4.422;2024-03-02T07:26:18;2.01;;;1.94;;
68942;SDS011;60852;52.190;4.422;2024-03-02T07:28:48;1.96;;;1.93;;
68942;SDS011;60852;52.190;4.422;2024-03-02T07:31:14;1.78;;;1.76;;
68942;SDS011;60852;52.190;4.422;2024-03-02T07:33:40;1.95;;;1.89;;
68942;SDS011;60852;52.190;4.422;2024-03-02T07:36:06;1.91;;;1.86;;
68942;SDS011;60852;52.190;4.422;2024-03-02T07:38:33;2.01;;;1.96;;
68942;SDS011;60852;52.190;4.422;2024-03-02T07:41:00;1.94;;;1.91;;
68942;SDS011;60852;52.190;4.422;2024-03-02T07:43:25;1.70;;;1.67;;
68942;SDS011;60852;52.190;4.422;2024-03-02T07:45:51;2.06;;;2.03;;
68942;SDS011;60852;52.190;4.422;2024-03-02T07:48:17;1.88;;;1.84;;
68942;SDS011;60852;52.190;4.422;2024-03-02T07:50:43;1.96;;;1.92;;
68942;SDS011;60852;52.190;4.422;2024-03-02T07:53:08;1.97;;;1.92;;
68942;SDS011;60852;52.190;4.422;2024-03-02T07:55:34;1.77;;;1.73;;
68942;SDS011;60852;52.190;4.422;2024-03-02T07:58:01;1.90;;;1.84;;
68942;SDS011;60852;52.190;4.422;2024-03-02T08:00:27;1.89;;;1.83;;
68942;SDS011;60852;52.190;4.422;2024-03-02T08:02:53;1.60;;;1.56;;
68942;SDS011;60852;52.190;4.422;2024-03-02T08:05:22;2.00;;;1.93;;
68942;SDS011;60852;52.190;4.422;2024-03-02T08:07:47;1.83;;;1.77;;
68942;SDS011;60852;52.190;4.422;2024-03-02T08:10:13;1.85;;;1.78;;
68942;SDS011;60852;52.190;4.422;2024-03-02T08:12:39;1.98;;;1.88;;
68942;SDS011;60852;52.190;4.422;2024-03-02T08:15:05;1.92;;;1.81;;
68942;SDS011;60852;52.190;4.422;2024-03-02T08:17:30;2.09;;;1.97;;
68942;SDS011;60852;52.190;4.422;2024-03-02T08:19:56;2.22;;;2.12;;
68942;SDS011;60852;52.190;4.422;2024-03-02T08:22:23;2.10;;;2.05;;
68942;SDS011;60852;52.190;4.422;2024-03-02T08:24:52;2.02;;;1.99;;
68942;SDS011;60852;52.190;4.422;2024-03-02T08:27:17;1.94;;;1.89;;
68942;SDS011;60852;52.190;4.422;2024-03-02T08:29:43;1.90;;;1.83;;
68942;SDS011;60852;52.190;4.422;2024-03-02T08:32:08;1.93;;;1.82;;
68942;SDS011;60852;52.190;4.422;2024-03-02T08:34:33;2.06;;;1.93;;
68942;SDS011;60852;52.190;4.422;2024-03-02T08:37:01;2.18;;;2.00;;
68942;SDS011;60852;52.190;4.422;2024-03-02T08:39:28;2.18;;;2.02;;
68942;SDS011;60852;52.190;4.422;2024-03-02T08:41:54;2.62;;;2.43;;
68942;SDS011;60852;52.190;4.422;2024-03-02T08:44:20;2.17;;;1.99;;
68942;SDS011;60852;52.190;4.422;2024-03-02T08:46:46;2.25;;;2.08;;
68942;SDS011;60852;52.190;4.422;2024-03-02T08:49:12;2.15;;;1.98;;
68942;SDS011;60852;52.190;4.422;2024-03-02T08:51:38;2.09;;;1.94;;
68942;SDS011;60852;52.190;4.422;2024-03-02T08:54:03;1.93;;;1.80;;
68942;SDS011;60852;52.190;4.422;2024-03-02T08:56:30;2.09;;;1.93;;
68942;SDS011;60852;52.190;4.422;2024-03-02T08:58:56;2.16;;;1.99;;
68942;SDS011;60852;52.190;4.422;2024-03-02T09:01:21;2.36;;;2.14;;
68942;SDS011;60852;52.190;4.422;2024-03-02T09:03:47;2.44;;;2.23;;
68942;SDS011;60852;52.190;4.422;2024-03-02T09:06:14;3.06;;;2.84;;
68942;SDS011;60852;52.190;4.422;2024-03-02T09:08:42;2.40;;;2.25;;
68942;SDS011;60852;52.190;4.422;2024-03-02T09:11:08;1.95;;;1.81;;
68942;SDS011;60852;52.190;4.422;2024-03-02T09:13:35;2.39;;;2.17;;
68942;SDS011;60852;52.190;4.422;2024-03-02T09:16:01;2.32;;;2.09;;
68942;SDS011;60852;52.190;4.422;2024-03-02T09:18:27;2.37;;;2.08;;
68942;SDS011;60852;52.190;4.422;2024-03-02T09:20:53;2.30;;;1.97;;
68942;SDS011;60852;52.190;4.422;2024-03-02T09:23:18;2.46;;;2.09;;
68942;SDS011;60852;52.190;4.422;2024-03-02T09:25:44;2.51;;;2.14;;
68942;SDS011;60852;52.190;4.422;2024-03-02T09:28:10;2.77;;;2.31;;
68942;SDS011;60852;52.190;4.422;2024-03-02T09:30:35;2.66;;;2.26;;
68942;SDS011;60852;52.190;4.422;2024-03-02T09:33:01;2.64;;;2.27;;
68942;SDS011;60852;52.190;4.422;2024-03-02T09:35:26;3.06;;;2.57;;
68942;SDS011;60852;52.190;4.422;2024-03-02T09:37:52;2.63;;;2.14;;
68942;SDS011;60852;52.190;4.422;2024-03-02T09:40:17;3.06;;;2.47;;
68942;SDS011;60852;52.190;4.422;2024-03-02T09:42:47;3.34;;;2.68;;
68942;SDS011;60852;52.190;4.422;2024-03-02T09:45:19;2.91;;;2.37;;
68942;SDS011;60852;52.190;4.422;2024-03-02T09:47:49;2.53;;;2.13;;
68942;SDS011;60852;52.190;4.422;2024-03-02T09:50:15;3.14;;;2.59;;
68942;SDS011;60852;52.190;4.422;2024-03-02T09:52:42;3.48;;;2.82;;
68942;SDS011;60852;52.190;4.422;2024-03-02T09:55:08;3.47;;;2.91;;
68942;SDS011;60852;52.190;4.422;2024-03-02T09:57:34;2.94;;;2.46;;
68942;SDS011;60852;52.190;4.422;2024-03-02T10:00:00;2.70;;;2.32;;
68942;SDS011;60852;52.190;4.422;2024-03-02T10:02:26;2.78;;;2.38;;
68942;SDS011;60852;52.190;4.422;2024-03-02T10:04:52;2.66;;;2.27;;
68942;SDS011;60852;52.190;4.422;2024-03-02T10:07:18;2.55;;;2.17;;
68942;SDS011;60852;52.190;4.422;2024-03-02T10:09:48;2.55;;;2.14;;
68942;SDS011;60852;52.190;4.422;2024-03-02T10:12:15;2.83;;;2.32;;
68942;SDS011;60852;52.190;4.422;2024-03-02T10:14:42;2.52;;;2.07;;
68942;SDS011;60852;52.190;4.422;2024-03-02T10:17:09;2.86;;;2.37;;
68942;SDS011;60852;52.190;4.422;2024-03-02T10:19:38;2.84;;;2.36;;
68942;SDS011;60852;52.190;4.422;2024-03-02T10:22:05;2.69;;;2.20;;
68942;SDS011;60852;52.190;4.422;2024-03-02T10:27:23;2.81;;;2.39;;
68942;SDS011;60852;52.190;4.422;2024-03-02T10:29:52;2.53;;;2.12;;
68942;SDS011;60852;52.190;4.422;2024-03-02T10:32:18;2.42;;;2.02;;
68942;SDS011;60852;52.190;4.422;2024-03-02T10:34:47;2.53;;;2.10;;
68942;SDS011;60852;52.190;4.422;2024-03-02T10:37:15;2.37;;;1.96;;
68942;SDS011;60852;52.190;4.422;2024-03-02T10:39:42;2.64;;;2.11;;
68942;SDS011;60852;52.190;4.422;2024-03-02T10:42:08;2.67;;;2.09;;
68942;SDS011;60852;52.190;4.422;2024-03-02T10:44:34;3.70;;;2.96;;
68942;SDS011;60852;52.190;4.422;2024-03-02T10:47:01;3.69;;;3.10;;
68942;SDS011;60852;52.190;4.422;2024-03-02T10:49:29;2.92;;;2.46;;
68942;SDS011;60852;52.190;4.422;2024-03-02T10:51:57;2.91;;;2.44;;
68942;SDS011;60852;52.190;4.422;2024-03-02T10:54:23;3.18;;;2.57;;
68942;SDS011;60852;52.190;4.422;2024-03-02T10:56:52;2.99;;;2.48;;
68942;SDS011;60852;52.190;4.422;2024-03-02T11:01:51;3.18;;;2.59;;
68942;SDS011;60852;52.190;4.422;2024-03-02T11:04:22;3.55;;;2.99;;
68942;SDS011;60852;52.190;4.422;2024-03-02T11:06:50;2.58;;;2.24;;
68942;SDS011;60852;52.190;4.422;2024-03-02T11:09:20;2.96;;;2.58;;
68942;SDS011;60852;52.190;4.422;2024-03-02T11:11:49;2.55;;;2.22;;
68942;SDS011;60852;52.190;4.422;2024-03-02T11:14:23;3.37;;;2.90;;
68942;SDS011;60852;52.190;4.422;2024-03-02T11:16:51;3.44;;;2.92;;
68942;SDS011;60852;52.190;4.422;2024-03-02T11:19:18;2.72;;;2.34;;
68942;SDS011;60852;52.190;4.422;2024-03-02T11:21:44;2.35;;;2.00;;
68942;SDS011;60852;52.190;4.422;2024-03-02T11:24:43;2.67;;;2.23;;
68942;SDS011;60852;52.190;4.422;2024-03-02T11:27:03;3.28;;;2.66;;
68942;SDS011;60852;52.190;4.422;2024-03-02T11:32:02;4.51;;;3.82;;
68942;SDS011;60852;52.190;4.422;2024-03-02T11:34:32;2.60;;;2.31;;
68942;SDS011;60852;52.190;4.422;2024-03-02T11:37:02;2.89;;;2.51;;
68942;SDS011;60852;52.190;4.422;2024-03-02T11:39:29;3.38;;;2.94;;
68942;SDS011;60852;52.190;4.422;2024-03-02T11:41:56;2.33;;;2.00;;
68942;SDS011;60852;52.190;4.422;2024-03-02T11:44:22;2.93;;;2.47;;
68942;SDS011;60852;52.190;4.422;2024-03-02T11:47:00;3.08;;;2.64;;
68942;SDS011;60852;52.190;4.422;2024-03-02T11:52:06;4.07;;;3.74;;
68942;SDS011;60852;52.190;4.422;2024-03-02T11:54:34;2.55;;;2.33;;
68942;SDS011;60852;52.190;4.422;2024-03-02T11:57:05;3.04;;;2.71;;
68942;SDS011;60852;52.190;4.422;2024-03-02T11:59:32;2.14;;;1.90;;
68942;SDS011;60852;52.190;4.422;2024-03-02T12:01:58;2.69;;;2.30;;
68942;SDS011;60852;52.190;4.422;2024-03-02T12:04:25;2.63;;;2.12;;
68942;SDS011;60852;52.190;4.422;2024-03-02T12:07:00;2.79;;;2.20;;
68942;SDS011;60852;52.190;4.422;2024-03-02T12:09:27;2.69;;;2.14;;
68942;SDS011;60852;52.190;4.422;2024-03-02T12:12:06;2.97;;;2.32;;
68942;SDS011;60852;52.190;4.422;2024-03-02T12:14:33;3.57;;;2.75;;
68942;SDS011;60852;52.190;4.422;2024-03-02T12:17:01;3.86;;;3.12;;
68942;SDS011;60852;52.190;4.422;2024-03-02T12:19:28;2.85;;;2.45;;
68942;SDS011;60852;52.190;4.422;2024-03-02T12:21:57;2.85;;;2.39;;
68942;SDS011;60852;52.190;4.422;2024-03-02T12:24:27;8.34;;;7.38;;
68942;SDS011;60852;52.190;4.422;2024-03-02T12:26:54;2.67;;;2.40;;
68942;SDS011;60852;52.190;4.422;2024-03-02T12:29:20;2.47;;;2.13;;
68942;SDS011;60852;52.190;4.422;2024-03-02T12:31:49;3.36;;;2.77;;
68942;SDS011;60852;52.190;4.422;2024-03-02T12:34:17;2.75;;;2.33;;
68942;SDS011;60852;52.190;4.422;2024-03-02T12:36:43;2.22;;;1.85;;
68942;SDS011;60852;52.190;4.422;2024-03-02T12:39:13;2.55;;;2.03;;
68942;SDS011;60852;52.190;4.422;2024-03-02T12:41:39;2.44;;;1.89;;
68942;SDS011;60852;52.190;4.422;2024-03-02T12:44:05;2.43;;;1.89;;
68942;SDS011;60852;52.190;4.422;2024-03-02T12:46:31;2.84;;;2.19;;
68942;SDS011;60852;52.190;4.422;2024-03-02T12:48:57;2.65;;;2.09;;
68942;SDS011;60852;52.190;4.422;2024-03-02T12:51:24;2.71;;;2.10;;
68942;SDS011;60852;52.190;4.422;2024-03-02T12:53:54;2.60;;;1.98;;
68942;SDS011;60852;52.190;4.422;2024-03-02T12:56:20;2.78;;;2.16;;
68942;SDS011;60852;52.190;4.422;2024-03-02T12:58:46;2.56;;;1.97;;
68942;SDS011;60852;52.190;4.422;2024-03-02T13:01:14;2.69;;;2.09;;
68942;SDS011;60852;52.190;4.422;2024-03-02T13:03:40;2.82;;;2.20;;
68942;SDS011;60852;52.190;4.422;2024-03-02T13:06:06;2.93;;;2.34;;
68942;SDS011;60852;52.190;4.422;2024-03-02T13:08:33;2.81;;;2.27;;
68942;SDS011;60852;52.190;4.422;2024-03-02T13:10:59;2.61;;;2.07;;
68942;SDS011;60852;52.190;4.422;2024-03-02T13:13:24;2.90;;;2.27;;
68942;SDS011;60852;52.190;4.422;2024-03-02T13:15:50;3.22;;;2.56;;
68942;SDS011;60852;52.190;4.422;2024-03-02T13:18:19;2.88;;;2.24;;
68942;SDS011;60852;52.190;4.422;2024-03-02T13:20:44;3.48;;;2.58;;
68942;SDS011;60852;52.190;4.422;2024-03-02T13:23:10;3.33;;;2.48;;
68942;SDS011;60852;52.190;4.422;2024-03-02T13:25:35;3.11;;;2.34;;
68942;SDS011;60852;52.190;4.422;2024-03-02T13:28:01;3.18;;;2.39;;
68942;SDS011;60852;52.190;4.422;2024-03-02T13:30:28;3.26;;;2.51;;
68942;SDS011;60852;52.190;4.422;2024-03-02T13:32:53;2.78;;;2.17;;
68942;SDS011;60852;52.190;4.422;2024-03-02T13:35:19;3.76;;;3.00;;
68942;SDS011;60852;52.190;4.422;2024-03-02T13:37:44;3.75;;;3.10;;
68942;SDS011;60852;52.190;4.422;2024-03-02T13:40:10;2.83;;;2.31;;
68942;SDS011;60852;52.190;4.422;2024-03-02T13:42:41;2.56;;;2.11;;
68942;SDS011;60852;52.190;4.422;2024-03-02T13:45:07;3.01;;;2.49;;
68942;SDS011;60852;52.190;4.422;2024-03-02T13:47:33;2.89;;;2.36;;
68942;SDS011;60852;52.190;4.422;2024-03-02T13:49:58;2.74;;;2.19;;
68942;SDS011;60852;52.190;4.422;2024-03-02T13:52:24;2.47;;;1.93;;
68942;SDS011;60852;52.190;4.422;2024-03-02T13:54:51;3.25;;;2.59;;
68942;SDS011;60852;52.190;4.422;2024-03-02T13:57:17;3.47;;;2.84;;
68942;SDS011;60852;52.190;4.422;2024-03-02T13:59:44;4.10;;;3.55;;
68942;SDS011;60852;52.190;4.422;2024-03-02T14:02:11;1.99;;;1.75;;
68942;SDS011;60852;52.190;4.422;2024-03-02T14:04:37;2.39;;;2.02;;
68942;SDS011;60852;52.190;4.422;2024-03-02T14:07:04;2.88;;;2.41;;
68942;SDS011;60852;52.190;4.422;2024-03-02T14:09:32;2.26;;;1.92;;
68942;SDS011;60852;52.190;4.422;2024-03-02T14:11:57;2.25;;;1.90;;
68942;SDS011;60852;52.190;4.422;2024-03-02T14:14:25;2.44;;;2.00;;
68942;SDS011;60852;52.190;4.422;2024-03-02T14:16:52;2.81;;;2.33;;
68942;SDS011;60852;52.190;4.422;2024-03-02T14:19:18;2.70;;;2.30;;
68942;SDS011;60852;52.190;4.422;2024-03-02T14:21:44;2.55;;;2.20;;
68942;SDS011;60852;52.190;4.422;2024-03-02T14:24:09;2.22;;;1.91;;
68942;SDS011;60852;52.190;4.422;2024-03-02T14:26:35;2.71;;;2.34;;
68942;SDS011;60852;52.190;4.422;2024-03-02T14:29:02;3.28;;;2.89;;
68942;SDS011;60852;52.190;4.422;2024-03-02T14:31:28;2.69;;;2.43;;
68942;SDS011;60852;52.190;4.422;2024-03-02T14:33:54;2.44;;;2.14;;
68942;SDS011;60852;52.190;4.422;2024-03-02T14:36:20;2.60;;;2.31;;
68942;SDS011;60852;52.190;4.422;2024-03-02T14:38:46;2.22;;;1.99;;
68942;SDS011;60852;52.190;4.422;2024-03-02T14:41:11;2.46;;;2.19;;
68942;SDS011;60852;52.190;4.422;2024-03-02T14:43:37;3.71;;;3.33;;
68942;SDS011;60852;52.190;4.422;2024-03-02T14:46:02;3.24;;;3.02;;
68942;SDS011;60852;52.190;4.422;2024-03-02T14:48:28;2.97;;;2.84;;
68942;SDS011;60852;52.190;4.422;2024-03-02T14:50:55;2.88;;;2.73;;
68942;SDS011;60852;52.190;4.422;2024-03-02T14:53:21;3.27;;;3.05;;
68942;SDS011;60852;52.190;4.422;2024-03-02T14:55:46;3.96;;;3.75;;
68942;SDS011;60852;52.190;4.422;2024-03-02T14:58:12;4.44;;;4.12;;
68942;SDS011;60852;52.190;4.422;2024-03-02T15:00:37;3.23;;;3.03;;